createdAt,value
2019-01-31T00:03:46.795Z,20.88
2019-01-31T00:09:13.471Z,20.87
2019-01-31T00:14:44.473Z,20.84
2019-01-31T00:20:43.810Z,20.79
2019-01-31T00:26:36.128Z,20.82
2019-01-31T00:32:20.208Z,20.85
2019-01-31T00:37:38.791Z,20.85
2019-01-31T00:43:19.325Z,20.78
2019-01-31T00:48:58.001Z,20.75
2019-01-31T00:54:30.858Z,20.75
2019-01-31T01:00:15.429Z,20.65
2019-01-31T01:11:56.277Z,20.67
2019-01-31T01:17:20.847Z,20.74
2019-01-31T01:22:52.324Z,20.73
2019-01-31T01:28:42.418Z,20.73
2019-01-31T01:34:10.734Z,20.79
2019-01-31T01:39:30.823Z,20.80
2019-01-31T01:45:15.985Z,20.80
2019-01-31T01:51:13.018Z,20.80
2019-01-31T01:57:25.625Z,20.82
2019-01-31T02:03:28.667Z,20.79
2019-01-31T02:14:46.508Z,20.90
2019-01-31T02:20:18.502Z,20.90
2019-01-31T02:25:31.431Z,20.92
2019-01-31T02:30:53.679Z,20.91
2019-01-31T02:42:26.764Z,20.92
2019-01-31T02:47:56.228Z,20.86
2019-01-31T02:53:13.823Z,20.83
2019-01-31T02:59:04.846Z,20.79
2019-01-31T03:04:43.045Z,20.75
2019-01-31T03:10:28.415Z,20.70
2019-01-31T03:15:57.650Z,20.70
2019-01-31T03:22:02.747Z,20.66
2019-01-31T03:27:34.412Z,20.66
2019-01-31T03:33:36.620Z,20.58
2019-01-31T03:49:53.134Z,20.49
2019-01-31T03:55:24.911Z,20.46
2019-01-31T04:01:25.337Z,20.46
2019-01-31T04:06:33.496Z,20.45
2019-01-31T04:12:03.878Z,20.39
2019-01-31T04:17:10.391Z,20.37
2019-01-31T04:22:15.384Z,20.34
2019-01-31T04:27:21.920Z,20.32
2019-01-31T04:32:26.651Z,20.30
2019-01-31T04:37:31.213Z,20.29
2019-01-31T04:42:36.049Z,20.29
2019-01-31T04:47:40.207Z,20.27
2019-01-31T04:52:44.564Z,20.24
2019-01-31T04:57:48.858Z,20.24
2019-01-31T05:02:53.115Z,20.20
2019-01-31T05:07:57.429Z,20.17
2019-01-31T05:13:01.586Z,20.14
2019-01-31T05:18:38.430Z,20.09
2019-01-31T05:29:38.928Z,20.03
2019-01-31T05:41:23.681Z,20.00
2019-01-31T05:46:28.499Z,19.91
2019-01-31T05:51:33.073Z,19.90
2019-01-31T05:56:37.562Z,19.96
2019-01-31T06:01:42.344Z,19.96
2019-01-31T06:06:47.026Z,19.96
2019-01-31T06:11:53.723Z,19.83
2019-01-31T06:17:15.535Z,19.90
2019-01-31T06:22:20.313Z,19.87
2019-01-31T06:27:24.978Z,19.87
2019-01-31T06:32:29.690Z,19.85
2019-01-31T06:37:34.127Z,19.85
2019-01-31T06:42:38.638Z,19.85
2019-01-31T06:47:43.134Z,19.79
2019-01-31T06:52:47.594Z,19.77
2019-01-31T06:57:52.050Z,19.76
2019-01-31T07:02:56.458Z,19.74
2019-01-31T07:08:04.923Z,19.72
2019-01-31T07:13:09.353Z,19.70
2019-01-31T07:18:13.433Z,19.68
2019-01-31T07:23:17.674Z,19.66
2019-01-31T07:28:21.815Z,19.64
2019-01-31T07:38:43.269Z,19.66
2019-01-31T07:43:48.194Z,19.62
2019-01-31T07:48:52.319Z,19.61
2019-01-31T07:53:56.556Z,19.53
2019-01-31T07:59:00.833Z,13.43
2019-01-31T08:04:05.095Z,11.89
2019-01-31T08:09:10.325Z,16.53
2019-01-31T08:14:14.521Z,18.99
2019-01-31T08:19:18.966Z,20.07
2019-01-31T08:24:23.217Z,20.50
2019-01-31T08:29:27.344Z,20.92
2019-01-31T08:34:31.654Z,20.96
2019-01-31T08:39:35.926Z,20.98
2019-01-31T08:44:40.134Z,20.78
2019-01-31T08:49:44.428Z,20.66
2019-01-31T08:54:48.601Z,20.54
2019-01-31T08:59:52.828Z,20.45
2019-01-31T09:04:57.149Z,20.34
2019-01-31T09:10:01.414Z,20.30
2019-01-31T09:15:06.834Z,20.30
2019-01-31T09:20:12.689Z,20.11
2019-01-31T09:25:46.278Z,20.05
2019-01-31T09:31:40.522Z,20.05
2019-01-31T09:37:20.041Z,19.93
2019-01-31T09:42:45.017Z,19.89
2019-01-31T09:48:30.015Z,19.83
2019-01-31T09:54:17.319Z,19.83
2019-01-31T09:59:35.788Z,19.83
2019-01-31T10:05:24.585Z,19.75
2019-01-31T10:11:03.220Z,20.88
2019-01-31T10:16:38.231Z,21.24
2019-01-31T10:22:23.073Z,21.20
2019-01-31T10:28:04.206Z,21.20
2019-01-31T10:33:22.457Z,14.48
2019-01-31T10:38:58.028Z,16.29
2019-01-31T10:44:55.272Z,18.99
2019-01-31T10:50:54.385Z,19.92
2019-01-31T10:56:29.509Z,20.22
2019-01-31T11:02:42.558Z,20.82
2019-01-31T11:14:47.393Z,20.81
2019-01-31T11:20:19.347Z,20.56
2019-01-31T11:25:49.464Z,20.36
2019-01-31T11:31:10.183Z,20.36
2019-01-31T11:36:39.668Z,20.44
2019-01-31T11:42:06.774Z,20.50
2019-01-31T11:47:37.086Z,20.69
2019-01-31T11:53:02.055Z,20.93
2019-01-31T11:58:26.185Z,21.07
2019-01-31T12:03:30.410Z,20.92
2019-01-31T12:08:34.894Z,20.73
2019-01-31T12:13:39.040Z,20.72
2019-01-31T12:18:43.266Z,20.68
2019-01-31T12:23:47.648Z,20.55
2019-01-31T12:28:51.800Z,20.62
2019-01-31T12:33:55.952Z,20.83
2019-01-31T12:39:00.229Z,20.82
2019-01-31T12:44:04.842Z,21.09
2019-01-31T12:49:09.234Z,21.27
2019-01-31T12:54:14.622Z,21.24
2019-01-31T12:59:19.026Z,21.08
2019-01-31T13:04:23.503Z,21.06
2019-01-31T13:09:28.379Z,20.92
2019-01-31T13:14:33.222Z,20.94
2019-01-31T13:19:37.530Z,20.94
2019-01-31T13:24:41.846Z,20.82
2019-01-31T13:29:46.124Z,20.68
2019-01-31T13:34:50.441Z,20.73
2019-01-31T13:39:54.659Z,20.75
2019-01-31T13:44:58.808Z,20.98
2019-01-31T13:50:03.054Z,21.25
2019-01-31T13:55:27.305Z,21.28
2019-01-31T14:00:31.589Z,21.15
2019-01-31T14:05:35.807Z,21.15
2019-01-31T14:10:40.003Z,20.98
2019-01-31T14:15:44.465Z,20.84
2019-01-31T14:20:48.590Z,20.81
2019-01-31T14:25:52.766Z,20.95
2019-01-31T14:30:56.907Z,20.85
2019-01-31T14:36:02.372Z,20.89
2019-01-31T14:41:06.627Z,20.96
2019-01-31T14:46:13.628Z,21.01
2019-01-31T14:51:17.842Z,21.02
2019-01-31T14:56:21.987Z,20.93
2019-01-31T15:01:26.262Z,20.95
2019-01-31T15:06:30.797Z,20.95
2019-01-31T15:11:35.370Z,20.84
2019-01-31T15:16:39.498Z,20.82
2019-01-31T15:21:43.701Z,20.82
2019-01-31T15:26:47.794Z,20.83
2019-01-31T15:31:52.061Z,20.88
2019-01-31T15:36:56.283Z,20.97
2019-01-31T15:42:00.572Z,21.03
2019-01-31T15:47:04.868Z,20.98
2019-01-31T15:52:09.112Z,20.99
2019-01-31T15:57:16.648Z,21.13
2019-01-31T16:02:19.572Z,20.92
2019-01-31T16:07:23.699Z,20.71
2019-01-31T16:12:27.782Z,20.75
2019-01-31T16:17:31.994Z,20.66
2019-01-31T16:22:36.266Z,20.70
2019-01-31T16:27:40.735Z,20.70
2019-01-31T16:32:45.073Z,20.68
2019-01-31T16:37:50.108Z,20.69
2019-01-31T16:42:54.467Z,20.73
2019-01-31T16:47:58.702Z,20.73
2019-01-31T16:53:03.106Z,20.91
2019-01-31T16:58:08.200Z,21.02
2019-01-31T17:03:13.202Z,21.13
2019-01-31T17:08:17.566Z,21.13
2019-01-31T17:13:21.798Z,22.31
2019-01-31T17:18:26.434Z,22.58
2019-01-31T17:23:30.764Z,22.58
2019-01-31T17:28:34.893Z,22.55
2019-01-31T17:33:39.072Z,22.33
2019-01-31T17:38:43.480Z,22.44
2019-01-31T17:43:48.316Z,22.40
2019-01-31T17:48:52.593Z,22.51
2019-01-31T17:53:56.822Z,22.43
2019-01-31T17:59:02.675Z,22.51
2019-01-31T18:04:08.040Z,22.51
2019-01-31T18:09:13.178Z,22.33
2019-01-31T18:14:20.603Z,22.47
2019-01-31T18:19:25.573Z,22.47
2019-01-31T18:24:31.420Z,22.60
2019-01-31T18:29:42.919Z,22.53
2019-01-31T18:34:43.231Z,22.54
2019-01-31T18:39:50.273Z,22.58
2019-01-31T18:44:57.054Z,22.58
2019-01-31T18:50:03.301Z,22.54
2019-01-31T18:55:09.301Z,22.53
2019-01-31T19:00:23.542Z,22.42
2019-01-31T19:05:30.892Z,22.43
2019-01-31T19:10:43.480Z,22.42
2019-01-31T19:15:46.388Z,22.41
2019-01-31T19:20:52.069Z,22.46
2019-01-31T19:25:58.250Z,22.46
2019-01-31T19:31:04.825Z,22.39
2019-01-31T19:36:11.594Z,22.41
2019-01-31T19:41:17.963Z,22.41
2019-01-31T19:46:24.238Z,22.18
2019-01-31T20:01:41.015Z,22.34
2019-01-31T20:06:47.792Z,22.55
2019-01-31T20:11:55.018Z,22.42
2019-01-31T20:17:02.868Z,22.42
2019-01-31T20:22:09.667Z,22.19
2019-01-31T20:27:16.609Z,22.19
2019-01-31T20:32:23.305Z,22.08
2019-01-31T20:37:29.289Z,22.08
2019-01-31T20:42:35.816Z,22.05
2019-01-31T20:47:42.505Z,21.85
2019-01-31T20:52:49.303Z,21.77
2019-01-31T20:57:56.301Z,21.69
2019-01-31T21:03:02.885Z,21.58
2019-01-31T21:08:10.673Z,21.52
2019-01-31T21:13:16.752Z,21.42
2019-01-31T21:18:22.800Z,21.44
2019-01-31T21:23:27.730Z,21.36
2019-01-31T21:28:32.692Z,21.29
2019-01-31T21:33:37.502Z,21.27
2019-01-31T21:38:42.142Z,21.28
2019-01-31T21:43:46.288Z,21.29
2019-01-31T21:48:50.712Z,21.24
2019-01-31T21:53:55.234Z,21.24
2019-01-31T21:58:59.285Z,21.24
2019-01-31T22:04:03.490Z,21.10
2019-01-31T22:09:09.893Z,21.20
2019-01-31T22:14:14.096Z,21.16
2019-01-31T22:19:18.227Z,21.19
2019-01-31T22:24:22.528Z,21.19
2019-01-31T22:29:26.600Z,21.20
2019-01-31T22:34:30.632Z,21.18
2019-01-31T22:39:34.777Z,21.17
2019-01-31T22:44:38.906Z,21.13
2019-01-31T22:49:43.045Z,21.14
2019-01-31T23:01:24.377Z,21.07
2019-01-31T23:06:28.488Z,21.03
2019-01-31T23:11:32.691Z,20.99
2019-01-31T23:16:36.980Z,20.95
2019-01-31T23:21:41.107Z,20.92
2019-01-31T23:26:45.222Z,20.92
2019-01-31T23:31:49.395Z,20.83
2019-01-31T23:36:53.570Z,20.71
2019-01-31T23:41:57.754Z,20.78
2019-01-31T23:47:01.768Z,20.75
2019-01-31T23:52:06.079Z,20.72
2019-01-31T23:57:10.190Z,20.59
